Miami, New Mexico
Current Conditions -  °F | °C
As of 5:35 PM on Saturday 25 Oct 2014 (Local Time) from KAXX Reporting Station
Clear Clear  
Wind Chill: 64°   Ceiling: Unl
Heat Index: 64°   Visibility: 10mi
Dew Point: 13°   Wind: 15mph
Humidity: 14%   Direction: 260°W
Pressure: 30.33"   Gusts: NA
Location:  36.35°N, 104.8°W
Report Text: KAXX 252335Z AUTO 26013KT 10SM CLR 18/M11 A3033 RMK AO2 T01791106
Loading
Personal Weather Stations






























Interactive Weather Map
Tropical Storm Tracking
New forecast layout! Learn more

10-Day Weather Forecast

Advertisements
Track Severe Weather on mobile